createdAt,value
2022-11-30T00:01:36.924Z,72.00
2022-11-30T00:04:05.230Z,70.30
2022-11-30T00:06:33.462Z,67.50
2022-11-30T00:09:01.985Z,64.70
2022-11-30T00:11:31.416Z,61.80
2022-11-30T00:13:59.707Z,63.03
2022-11-30T00:16:28.716Z,66.80
2022-11-30T00:18:57.222Z,65.63
2022-11-30T00:21:25.264Z,71.87
2022-11-30T00:23:53.691Z,71.07
2022-11-30T00:26:22.849Z,69.47
2022-11-30T00:28:52.576Z,78.30
2022-11-30T00:31:21.509Z,66.70
2022-11-30T00:33:50.027Z,72.70
2022-11-30T00:36:20.164Z,70.50
2022-11-30T00:38:48.521Z,77.03
2022-11-30T00:41:18.173Z,66.97
2022-11-30T00:43:46.735Z,71.33
2022-11-30T00:46:16.534Z,62.27
2022-11-30T00:48:44.823Z,76.33
2022-11-30T00:51:13.273Z,61.80
2022-11-30T00:53:41.936Z,84.13
2022-11-30T00:56:11.017Z,86.53
2022-11-30T00:58:39.234Z,75.37
2022-11-30T01:01:07.811Z,82.37
2022-11-30T01:03:38.416Z,77.37
2022-11-30T01:06:08.073Z,78.23
2022-11-30T01:08:36.620Z,83.50
2022-11-30T01:11:14.503Z,72.37
2022-11-30T01:13:42.921Z,63.77
2022-11-30T01:16:13.103Z,91.13
2022-11-30T01:18:43.320Z,71.33
2022-11-30T01:21:13.735Z,79.03
2022-11-30T01:23:42.104Z,76.13
2022-11-30T01:26:10.788Z,78.37
2022-11-30T01:28:40.867Z,81.67
2022-11-30T01:31:10.392Z,74.30
2022-11-30T01:33:38.741Z,96.13
2022-11-30T01:36:10.923Z,71.30
2022-11-30T01:38:41.406Z,78.50
2022-11-30T01:41:11.074Z,73.27
2022-11-30T01:43:41.244Z,79.10
2022-11-30T01:46:20.698Z,70.33
2022-11-30T01:48:52.405Z,90.33
2022-11-30T01:51:22.052Z,85.57
2022-11-30T01:53:50.494Z,81.47
2022-11-30T01:56:19.254Z,84.97
2022-11-30T01:58:47.429Z,78.03
2022-11-30T02:01:15.790Z,85.07
2022-11-30T02:03:49.100Z,81.07
2022-11-30T02:06:17.403Z,82.77
2022-11-30T02:08:47.495Z,94.97
2022-11-30T02:11:16.299Z,73.53
2022-11-30T02:13:59.744Z,79.23
2022-11-30T02:16:32.874Z,95.37
2022-11-30T02:19:11.387Z,74.37
2022-11-30T02:21:43.909Z,79.53
2022-11-30T02:24:32.600Z,74.57
2022-11-30T02:27:19.869Z,77.73
2022-11-30T02:29:51.203Z,70.73
2022-11-30T02:32:24.144Z,82.27
2022-11-30T02:34:53.831Z,69.93
2022-11-30T02:37:23.516Z,78.37
2022-11-30T02:39:51.869Z,76.10
2022-11-30T02:42:19.931Z,79.03
2022-11-30T02:44:50.802Z,77.57
2022-11-30T02:47:24.134Z,86.57
2022-11-30T02:49:56.697Z,77.37
2022-11-30T02:52:27.136Z,86.00
2022-11-30T02:54:55.448Z,77.50
2022-11-30T02:57:23.567Z,78.87
2022-11-30T02:59:53.161Z,78.23
2022-11-30T03:02:21.285Z,68.77
2022-11-30T03:04:49.777Z,74.53
2022-11-30T03:07:17.956Z,76.40
2022-11-30T03:09:46.073Z,77.13
2022-11-30T03:12:14.180Z,84.73
2022-11-30T03:14:42.429Z,73.57
2022-11-30T03:17:12.298Z,77.17
2022-11-30T03:19:40.417Z,77.37
2022-11-30T03:22:08.544Z,80.67
2022-11-30T03:24:36.823Z,79.70
2022-11-30T03:27:05.363Z,80.70
2022-11-30T03:29:33.506Z,78.10
2022-11-30T03:32:01.986Z,75.87
2022-11-30T03:34:31.783Z,77.43
2022-11-30T03:37:00.021Z,76.57
2022-11-30T03:39:28.170Z,73.80
2022-11-30T03:41:56.297Z,85.53
2022-11-30T03:44:24.773Z,77.17
2022-11-30T03:46:52.905Z,75.63
2022-11-30T03:49:20.966Z,79.27
2022-11-30T03:51:50.933Z,78.67
2022-11-30T03:54:19.100Z,89.50
2022-11-30T03:56:47.482Z,83.73
2022-11-30T03:59:15.636Z,77.97
2022-11-30T04:01:43.885Z,79.83
2022-11-30T04:04:12.580Z,85.87
2022-11-30T04:06:40.751Z,82.77
2022-11-30T04:09:10.695Z,68.47
2022-11-30T04:11:38.791Z,70.53
2022-11-30T04:14:06.898Z,62.63
2022-11-30T04:16:36.177Z,82.33
2022-11-30T04:19:04.716Z,82.50
2022-11-30T04:21:32.870Z,73.03
2022-11-30T04:24:00.919Z,86.17
2022-11-30T04:26:30.477Z,82.27
2022-11-30T04:29:02.137Z,80.63
2022-11-30T04:31:32.311Z,74.83
2022-11-30T04:34:00.572Z,81.83
2022-11-30T04:36:28.906Z,79.80
2022-11-30T04:38:57.282Z,71.63
2022-11-30T04:41:25.393Z,89.90
2022-11-30T04:43:54.918Z,82.67
2022-11-30T04:46:23.128Z,83.10
2022-11-30T04:48:51.246Z,84.73
2022-11-30T04:51:19.679Z,78.37
2022-11-30T04:53:47.861Z,76.50
2022-11-30T04:56:16.291Z,76.83
2022-11-30T04:58:44.533Z,79.37
2022-11-30T05:01:14.263Z,92.67
2022-11-30T05:03:42.549Z,77.67
2022-11-30T05:06:10.781Z,89.23
2022-11-30T05:08:39.067Z,76.10
2022-11-30T05:11:07.116Z,87.17
2022-11-30T05:13:35.133Z,77.23
2022-11-30T05:16:03.244Z,77.23
2022-11-30T05:18:33.596Z,90.87
2022-11-30T05:21:01.850Z,84.73
2022-11-30T05:23:30.464Z,75.27
2022-11-30T05:25:58.807Z,77.70
2022-11-30T05:28:26.944Z,84.47
2022-11-30T05:30:55.392Z,84.93
2022-11-30T05:33:23.525Z,72.30
2022-11-30T05:35:53.008Z,85.30
2022-11-30T05:38:21.236Z,84.83
2022-11-30T05:40:49.471Z,78.67
2022-11-30T05:43:18.923Z,81.53
2022-11-30T05:45:47.433Z,100.50
2022-11-30T05:48:15.566Z,86.67
2022-11-30T05:50:43.741Z,79.47
2022-11-30T05:53:13.189Z,79.77
2022-11-30T05:55:41.433Z,84.80
2022-11-30T05:58:10.268Z,84.13
2022-11-30T06:00:38.577Z,91.80
2022-11-30T06:03:07.479Z,91.70
2022-11-30T06:05:36.219Z,87.97
2022-11-30T06:08:04.518Z,80.50
2022-11-30T06:10:34.028Z,97.17
2022-11-30T06:13:07.930Z,97.03
2022-11-30T06:15:35.983Z,81.73
2022-11-30T06:18:04.819Z,85.30
2022-11-30T06:20:32.948Z,90.60
2022-11-30T06:23:01.468Z,77.90
2022-11-30T06:25:29.594Z,94.07
2022-11-30T06:27:59.092Z,80.20
2022-11-30T06:30:27.192Z,92.60
2022-11-30T06:32:55.387Z,93.60
2022-11-30T06:35:23.847Z,93.03
2022-11-30T06:37:53.438Z,94.50
2022-11-30T06:40:21.698Z,93.50
2022-11-30T06:42:49.808Z,96.83
2022-11-30T06:45:19.660Z,81.10
2022-11-30T06:47:47.881Z,86.90
2022-11-30T06:50:16.320Z,87.43
2022-11-30T06:52:44.333Z,90.27
2022-11-30T06:55:12.323Z,99.27
2022-11-30T06:57:40.486Z,88.20
2022-11-30T07:00:10.249Z,79.63
2022-11-30T07:02:39.661Z,89.17
2022-11-30T07:05:08.080Z,80.10
2022-11-30T07:07:36.722Z,86.83
2022-11-30T07:10:05.613Z,87.47
2022-11-30T07:12:36.762Z,80.87
2022-11-30T07:15:05.448Z,96.23
2022-11-30T07:17:33.563Z,98.53
2022-11-30T07:20:03.637Z,86.07
2022-11-30T07:22:31.648Z,90.10
2022-11-30T07:25:17.272Z,101.10
2022-11-30T07:27:45.448Z,97.07
2022-11-30T07:30:14.334Z,92.53
2022-11-30T07:32:42.400Z,95.53
2022-11-30T07:35:11.920Z,85.63
2022-11-30T07:37:40.015Z,85.43
2022-11-30T07:40:09.563Z,82.80
2022-11-30T07:42:37.720Z,101.50
2022-11-30T07:45:06.905Z,83.90
2022-11-30T07:47:35.073Z,83.50
2022-11-30T07:50:03.152Z,102.10
2022-11-30T07:52:33.761Z,89.73
2022-11-30T07:55:01.831Z,84.77
2022-11-30T07:57:30.098Z,84.53
2022-11-30T07:59:58.066Z,84.40
2022-11-30T08:02:26.392Z,83.83
2022-11-30T08:04:57.998Z,106.50
2022-11-30T08:07:26.063Z,102.70
2022-11-30T08:09:55.471Z,82.17
2022-11-30T08:12:23.820Z,93.70
2022-11-30T08:15:18.765Z,92.70
2022-11-30T08:17:39.911Z,96.20
2022-11-30T08:20:09.257Z,87.27
2022-11-30T08:22:37.643Z,77.07
2022-11-30T08:25:10.387Z,74.30
2022-11-30T08:27:38.746Z,86.93
2022-11-30T08:30:08.238Z,77.53
2022-11-30T08:32:36.565Z,69.73
2022-11-30T08:35:04.976Z,71.93
2022-11-30T08:37:33.239Z,71.13
2022-11-30T08:40:01.385Z,67.97
2022-11-30T08:42:31.158Z,80.50
2022-11-30T08:44:59.674Z,68.53
2022-11-30T08:47:28.012Z,72.40
2022-11-30T08:49:56.119Z,73.80
2022-11-30T08:52:24.142Z,70.30
2022-11-30T08:54:52.710Z,68.63
2022-11-30T08:57:22.470Z,57.40
2022-11-30T08:59:51.883Z,67.90
2022-11-30T09:02:20.581Z,65.40
2022-11-30T09:04:51.481Z,65.37
2022-11-30T09:07:20.073Z,65.37
2022-11-30T09:09:48.453Z,63.33
2022-11-30T09:12:16.507Z,71.40
2022-11-30T09:14:45.695Z,67.13
2022-11-30T09:17:15.757Z,56.80
2022-11-30T09:19:44.683Z,68.87
2022-11-30T09:22:12.764Z,68.03
2022-11-30T09:24:41.514Z,71.13
2022-11-30T09:27:10.069Z,71.27
2022-11-30T09:29:38.086Z,65.10
2022-11-30T09:32:06.772Z,68.63
2022-11-30T09:34:36.222Z,63.00
2022-11-30T09:37:04.446Z,69.07
2022-11-30T09:39:32.926Z,74.77
2022-11-30T09:42:24.278Z,65.10
2022-11-30T09:44:59.327Z,62.50
2022-11-30T09:47:39.563Z,72.97
2022-11-30T09:50:18.944Z,61.30
2022-11-30T09:52:50.337Z,66.43
2022-11-30T09:55:24.163Z,62.70
2022-11-30T09:57:54.207Z,61.87
2022-11-30T10:00:23.544Z,51.87
2022-11-30T10:02:53.401Z,70.30
2022-11-30T10:05:24.552Z,58.17
2022-11-30T10:08:16.733Z,66.23
2022-11-30T10:10:50.567Z,66.33
2022-11-30T10:13:27.898Z,67.43
2022-11-30T10:16:05.165Z,61.27
2022-11-30T10:18:42.287Z,67.50
2022-11-30T10:21:24.232Z,59.40
2022-11-30T10:24:05.815Z,57.93
2022-11-30T10:26:35.322Z,63.80
2022-11-30T10:29:13.956Z,51.67
2022-11-30T10:31:43.996Z,58.37
2022-11-30T10:34:19.660Z,57.97
2022-11-30T10:36:52.886Z,54.53
2022-11-30T10:39:23.937Z,60.40
2022-11-30T10:41:56.945Z,61.03
2022-11-30T10:44:28.414Z,56.40
2022-11-30T10:47:00.964Z,56.87
2022-11-30T10:49:30.377Z,65.17
2022-11-30T10:52:02.718Z,57.40
2022-11-30T10:54:31.716Z,55.87
2022-11-30T10:57:01.203Z,57.27
2022-11-30T10:59:37.734Z,56.93
2022-11-30T11:02:38.089Z,62.57
2022-11-30T11:05:15.688Z,58.77
2022-11-30T11:07:59.827Z,62.33
2022-11-30T11:10:35.256Z,55.03
2022-11-30T11:13:04.398Z,52.53
2022-11-30T11:15:33.830Z,58.93
2022-11-30T11:18:26.353Z,60.60
2022-11-30T11:21:06.135Z,59.73
2022-11-30T11:23:38.210Z,50.50
2022-11-30T11:26:08.128Z,57.47
2022-11-30T11:28:36.798Z,55.50
2022-11-30T11:31:18.898Z,49.13
2022-11-30T11:33:54.481Z,54.70
2022-11-30T11:36:28.560Z,53.30
2022-11-30T11:38:58.677Z,61.33
2022-11-30T11:41:29.628Z,51.30
2022-11-30T11:44:01.519Z,60.53
2022-11-30T11:46:30.273Z,54.77
2022-11-30T11:49:00.255Z,66.63
2022-11-30T11:51:33.055Z,69.60
2022-11-30T11:54:05.952Z,68.03
2022-11-30T11:56:35.921Z,58.03
2022-11-30T11:59:13.891Z,65.27
2022-11-30T12:01:49.032Z,61.20
2022-11-30T12:04:38.973Z,58.30
2022-11-30T12:07:18.113Z,57.13
2022-11-30T12:09:56.829Z,49.37
2022-11-30T12:12:24.948Z,57.33
2022-11-30T12:14:53.951Z,62.00
2022-11-30T12:17:36.103Z,54.50
2022-11-30T12:20:14.293Z,55.30
2022-11-30T12:22:52.472Z,66.83
2022-11-30T12:25:26.846Z,66.00
2022-11-30T12:28:02.828Z,65.70
2022-11-30T12:30:35.696Z,62.87
2022-11-30T12:33:11.857Z,63.50
2022-11-30T12:35:52.480Z,64.97
2022-11-30T12:38:33.372Z,67.40
2022-11-30T12:41:34.253Z,62.03
2022-11-30T12:44:28.715Z,60.10
2022-11-30T12:47:02.086Z,65.20
2022-11-30T12:49:40.252Z,60.07
2022-11-30T12:52:21.690Z,66.90
2022-11-30T12:54:55.247Z,65.27
2022-11-30T12:57:27.965Z,66.23
2022-11-30T13:00:03.365Z,52.53
2022-11-30T13:02:47.143Z,56.40
2022-11-30T13:05:17.163Z,60.10
2022-11-30T13:07:48.416Z,61.40
2022-11-30T13:10:26.692Z,55.93
2022-11-30T13:12:56.505Z,58.00
2022-11-30T13:15:26.969Z,69.30
2022-11-30T13:17:55.731Z,59.37
2022-11-30T13:20:30.145Z,60.77
2022-11-30T13:23:01.517Z,55.63
2022-11-30T13:26:06.969Z,66.57
2022-11-30T13:28:31.505Z,53.67
2022-11-30T13:31:01.921Z,55.13
2022-11-30T13:33:48.291Z,62.50
2022-11-30T13:36:39.573Z,64.77
2022-11-30T13:39:28.914Z,59.60
2022-11-30T13:42:34.282Z,63.97
2022-11-30T13:47:58.393Z,56.13
2022-11-30T13:50:36.226Z,63.03
2022-11-30T13:53:18.336Z,58.00
2022-11-30T13:55:56.657Z,56.50
2022-11-30T13:58:26.040Z,59.93
2022-11-30T14:01:28.029Z,62.63
2022-11-30T14:04:33.793Z,63.10
2022-11-30T14:07:06.621Z,55.03
2022-11-30T14:09:59.335Z,65.67
2022-11-30T14:12:48.919Z,58.50
2022-11-30T14:15:54.359Z,54.87
2022-11-30T14:18:41.705Z,63.63
2022-11-30T14:21:24.023Z,62.40
2022-11-30T14:23:56.806Z,61.67
2022-11-30T14:26:29.166Z,63.50
2022-11-30T14:29:05.217Z,56.50
2022-11-30T14:31:36.491Z,61.23
2022-11-30T14:34:09.865Z,60.93
2022-11-30T14:36:49.115Z,57.90
2022-11-30T14:39:35.276Z,59.23
2022-11-30T14:42:05.266Z,62.20
2022-11-30T14:44:35.766Z,65.10
2022-11-30T14:47:14.655Z,61.60
2022-11-30T14:49:47.201Z,62.27
2022-11-30T14:52:22.768Z,65.57
2022-11-30T14:54:55.762Z,64.27
2022-11-30T14:57:28.723Z,75.97
2022-11-30T14:59:57.436Z,56.57
2022-11-30T15:02:30.884Z,72.23
2022-11-30T15:05:00.166Z,55.80
2022-11-30T15:07:30.428Z,64.77
2022-11-30T15:10:04.866Z,70.13
2022-11-30T15:12:33.389Z,64.07
2022-11-30T15:15:14.241Z,70.53
2022-11-30T15:17:51.772Z,70.33
2022-11-30T15:20:26.620Z,61.10
2022-11-30T15:22:58.495Z,73.60
2022-11-30T15:25:31.935Z,61.53
2022-11-30T15:28:00.705Z,68.33
2022-11-30T15:30:29.337Z,72.70
2022-11-30T15:32:58.114Z,60.03
2022-11-30T15:35:38.768Z,62.80
2022-11-30T15:38:20.224Z,64.77
2022-11-30T15:40:55.186Z,69.00
2022-11-30T15:43:26.874Z,65.27
2022-11-30T15:45:57.531Z,65.57
2022-11-30T15:48:31.265Z,68.20
2022-11-30T15:51:00.179Z,64.67
2022-11-30T15:53:32.329Z,68.73
2022-11-30T15:56:02.493Z,69.17
2022-11-30T15:58:34.671Z,64.30
2022-11-30T16:01:12.228Z,72.20
2022-11-30T16:04:04.847Z,65.77
2022-11-30T16:06:36.356Z,72.93
2022-11-30T16:09:20.016Z,70.90
2022-11-30T16:11:48.605Z,78.80
2022-11-30T16:14:18.020Z,66.40
2022-11-30T16:16:46.686Z,65.33
2022-11-30T16:19:14.961Z,74.43
2022-11-30T16:21:43.233Z,70.53
2022-11-30T16:24:15.007Z,61.20
2022-11-30T16:26:52.508Z,75.53
2022-11-30T16:29:20.887Z,67.53
2022-11-30T16:31:49.335Z,72.90
2022-11-30T16:34:17.695Z,82.23
2022-11-30T16:36:45.864Z,100.67
2022-11-30T16:39:15.402Z,100.00
2022-11-30T16:41:45.165Z,86.67
2022-11-30T16:44:15.058Z,83.03
2022-11-30T16:46:43.226Z,78.67
2022-11-30T16:49:11.466Z,85.30
2022-11-30T16:51:41.797Z,106.97
2022-11-30T16:54:13.484Z,101.40
2022-11-30T16:56:43.299Z,109.60
2022-11-30T16:59:16.497Z,115.40
2022-11-30T17:01:47.744Z,87.87
2022-11-30T17:04:18.627Z,94.13
2022-11-30T17:06:50.272Z,91.43
2022-11-30T17:09:20.729Z,119.47
2022-11-30T17:11:51.555Z,108.27
2022-11-30T17:14:20.883Z,91.93
2022-11-30T17:16:49.184Z,106.03
2022-11-30T17:19:17.393Z,103.87
2022-11-30T17:21:45.910Z,98.63
2022-11-30T17:24:14.097Z,115.13
2022-11-30T17:26:42.272Z,103.83
2022-11-30T17:29:11.738Z,94.10
2022-11-30T17:31:40.111Z,90.97
2022-11-30T17:34:09.847Z,86.20
2022-11-30T17:36:38.181Z,101.40
2022-11-30T17:39:13.926Z,85.20
2022-11-30T17:41:53.553Z,89.27
2022-11-30T17:44:25.734Z,93.07
2022-11-30T17:46:53.866Z,89.90
2022-11-30T17:49:21.949Z,95.40
2022-11-30T17:51:50.217Z,94.83
2022-11-30T17:54:18.366Z,77.80
2022-11-30T17:56:46.501Z,80.90
2022-11-30T17:59:14.594Z,87.43
2022-11-30T18:01:44.327Z,85.70
2022-11-30T18:04:13.560Z,87.20
2022-11-30T18:06:41.671Z,98.80
2022-11-30T18:09:09.963Z,82.53
2022-11-30T18:11:38.101Z,84.23
2022-11-30T18:14:06.214Z,83.60
2022-11-30T18:16:37.034Z,67.10
2022-11-30T18:19:12.035Z,79.00
2022-11-30T18:21:41.316Z,64.07
2022-11-30T18:24:09.646Z,73.20
2022-11-30T18:26:38.962Z,79.37
2022-11-30T18:29:07.719Z,68.13
2022-11-30T18:31:36.649Z,74.80
2022-11-30T18:34:07.561Z,68.03
2022-11-30T18:36:35.958Z,79.87
2022-11-30T18:39:04.165Z,74.33
2022-11-30T18:41:32.333Z,76.13
2022-11-30T18:44:00.560Z,67.10
2022-11-30T18:46:28.694Z,78.97
2022-11-30T18:48:56.852Z,76.83
2022-11-30T18:51:27.668Z,73.73
2022-11-30T18:53:57.785Z,85.03
2022-11-30T18:56:27.169Z,77.50
2022-11-30T18:58:57.744Z,70.87
2022-11-30T19:01:29.070Z,87.53
2022-11-30T19:03:59.300Z,69.47
2022-11-30T19:06:30.118Z,79.37
2022-11-30T19:08:58.659Z,83.63
2022-11-30T19:11:27.332Z,76.67
2022-11-30T19:13:55.880Z,95.40
2022-11-30T19:16:24.776Z,79.83
2022-11-30T19:18:53.131Z,90.93
2022-11-30T19:21:22.876Z,67.33
2022-11-30T19:23:52.525Z,75.63
2022-11-30T19:26:20.676Z,75.70
2022-11-30T19:28:48.848Z,82.63
2022-11-30T19:31:18.838Z,71.07
2022-11-30T19:33:49.015Z,73.97
2022-11-30T19:36:19.345Z,85.77
2022-11-30T19:38:47.845Z,75.47
2022-11-30T19:41:18.640Z,74.13
2022-11-30T19:43:54.773Z,80.30
2022-11-30T19:46:28.052Z,79.23
2022-11-30T19:48:57.756Z,79.80
2022-11-30T19:51:25.964Z,76.60
2022-11-30T19:53:58.265Z,67.10
2022-11-30T19:56:28.646Z,74.00
2022-11-30T19:59:04.103Z,75.47
2022-11-30T20:01:35.146Z,76.37
2022-11-30T20:04:04.063Z,80.47
2022-11-30T20:06:35.863Z,78.07
2022-11-30T20:09:04.711Z,71.73
2022-11-30T20:11:35.724Z,72.60
2022-11-30T20:14:04.287Z,72.43
2022-11-30T20:16:32.627Z,72.07
2022-11-30T20:19:02.524Z,72.33
2022-11-30T20:21:32.367Z,73.00
2022-11-30T20:24:04.913Z,62.97
2022-11-30T20:26:35.924Z,59.37
2022-11-30T20:29:06.001Z,71.80
2022-11-30T20:31:36.323Z,70.80
2022-11-30T20:34:04.622Z,68.90
2022-11-30T20:36:32.792Z,60.73
2022-11-30T20:39:01.274Z,76.53
2022-11-30T20:41:29.500Z,68.33
2022-11-30T20:43:59.057Z,72.43
2022-11-30T20:46:28.854Z,67.00
2022-11-30T20:48:58.224Z,73.87
2022-11-30T20:51:31.098Z,83.27
2022-11-30T20:54:00.623Z,78.80
2022-11-30T20:56:28.808Z,72.10
2022-11-30T20:59:02.218Z,78.50
2022-11-30T21:01:30.831Z,75.43
2022-11-30T21:04:00.619Z,78.93
2022-11-30T21:06:29.172Z,73.90
2022-11-30T21:08:57.290Z,77.17
2022-11-30T21:11:25.678Z,62.47
2022-11-30T21:13:54.025Z,79.00
2022-11-30T21:16:28.104Z,64.63
2022-11-30T21:18:57.663Z,80.17
2022-11-30T21:21:28.689Z,80.70
2022-11-30T21:23:59.596Z,66.50
2022-11-30T21:26:29.571Z,70.93
2022-11-30T21:29:02.117Z,77.40
2022-11-30T21:31:32.339Z,73.57
2022-11-30T21:34:00.828Z,68.40
2022-11-30T21:36:29.218Z,70.03
2022-11-30T21:39:04.992Z,70.90
2022-11-30T21:41:34.122Z,78.13
2022-11-30T21:44:03.112Z,78.63
2022-11-30T21:46:32.735Z,77.30
2022-11-30T21:49:01.238Z,77.90
2022-11-30T21:51:31.904Z,80.53
2022-11-30T21:54:03.159Z,82.33
2022-11-30T21:56:32.776Z,80.67
2022-11-30T21:59:01.263Z,74.63
2022-11-30T22:01:30.894Z,67.60
2022-11-30T22:04:01.029Z,66.90
2022-11-30T22:06:30.405Z,68.13
2022-11-30T22:09:03.365Z,76.27
2022-11-30T22:11:32.444Z,78.93
2022-11-30T22:14:00.509Z,66.57
2022-11-30T22:16:35.583Z,66.83
2022-11-30T22:19:07.391Z,71.10
2022-11-30T22:21:36.140Z,77.77
2022-11-30T22:24:05.566Z,73.17
2022-11-30T22:26:35.152Z,75.60
2022-11-30T22:29:05.088Z,75.03
2022-11-30T22:31:34.728Z,74.40
2022-11-30T22:34:03.600Z,72.50
2022-11-30T22:36:34.932Z,70.43
2022-11-30T22:39:05.546Z,83.87
2022-11-30T22:41:34.021Z,77.33
2022-11-30T22:44:02.441Z,80.20
2022-11-30T22:46:32.612Z,77.57
2022-11-30T22:49:02.347Z,67.00
2022-11-30T22:51:33.591Z,77.70
2022-11-30T22:54:02.464Z,71.37
2022-11-30T22:56:32.233Z,68.70
2022-11-30T22:59:01.350Z,64.30
2022-11-30T23:01:31.450Z,67.03
2022-11-30T23:04:03.310Z,68.37
2022-11-30T23:06:34.246Z,79.87
2022-11-30T23:09:02.708Z,75.20
2022-11-30T23:11:31.470Z,78.07
2022-11-30T23:13:59.773Z,77.00
2022-11-30T23:16:28.094Z,74.30
2022-11-30T23:18:58.072Z,76.70
2022-11-30T23:21:29.990Z,74.40
2022-11-30T23:24:01.895Z,83.27
2022-11-30T23:26:31.434Z,72.33
2022-11-30T23:29:00.902Z,73.77
2022-11-30T23:31:33.737Z,67.37
2022-11-30T23:34:05.677Z,68.60
2022-11-30T23:36:34.150Z,74.00
2022-11-30T23:39:06.213Z,72.60
2022-11-30T23:41:34.551Z,67.07
2022-11-30T23:44:02.810Z,65.80
2022-11-30T23:46:31.491Z,65.13
2022-11-30T23:48:59.884Z,67.70
2022-11-30T23:51:27.992Z,63.70
2022-11-30T23:53:56.103Z,70.73
2022-11-30T23:56:25.882Z,73.73
2022-11-30T23:58:54.394Z,65.90
